| Date | Time | Temp. (oF) | Dew Point (oF) | Rel. Hum. (%) | Press. (in.) | Wind Dir. | Wind Speed (mph) | Hourly Rainfall (in.) |
|
|---|---|---|---|---|---|---|---|---|---|
| 1 | 11/27 | 00:00 | 40 | 36 | 87 | 30.56 | WNW | 0 | 0.00 |
| 2 | 11/26 | 23:00 | 41 | 37 | 86 | 30.56 | NNE | 0 | 0.00 |
| 3 | 11/26 | 22:00 | 42 | 37 | 83 | 30.55 | N | 0 | 0.00 |
| 4 | 11/26 | 21:00 | 44 | 38 | 80 | 30.56 | ESE | 0 | 0.00 |
| 5 | 11/26 | 20:00 | 46 | 39 | 79 | 30.59 | NE | 0 | 0.00 |
| 6 | 11/26 | 19:00 | 48 | 38 | 70 | 30.58 | E | 0 | 0.00 |
| 7 | 11/26 | 18:00 | 53 | 40 | 62 | 30.58 | S | 0 | 0.00 |
| 8 | 11/26 | 17:00 | 56 | 40 | 57 | 30.57 | S | 0 | 0.00 |
| 9 | 11/26 | 16:00 | 59 | 41 | 52 | 30.58 | S | 5 | 0.00 |
| 10 | 11/26 | 15:00 | 61 | 41 | 49 | 30.59 | SSW | 11 | 0.00 |
| 11 | 11/26 | 14:00 | 61 | 43 | 52 | 30.60 | S | 7 | 0.00 |
| 12 | 11/26 | 13:00 | 60 | 44 | 57 | 30.63 | SSW | 4 | 0.00 |
| 13 | 11/26 | 12:00 | 58 | 42 | 57 | 30.66 | S | 7 | 0.00 |
| 14 | 11/26 | 11:00 | 52 | 41 | 67 | 30.70 | S | 2 | 0.00 |
| 15 | 11/26 | 10:00 | 45 | 38 | 77 | 30.71 | NE | 1 | 0.00 |
| 16 | 11/26 | 09:00 | 38 | 34 | 87 | 30.72 | S | 0 | 0.00 |
| 17 | 11/26 | 08:00 | 31 | 28 | 90 | 30.71 | SSW | 0 | 0.00 |
| 18 | 11/26 | 07:00 | 30 | 27 | 90 | 30.71 | NNE | 0 | 0.00 |
| 19 | 11/26 | 06:00 | 30 | 27 | 89 | 30.72 | W | 0 | 0.00 |
| 20 | 11/26 | 05:00 | 30 | 26 | 87 | 30.71 | SE | 0 | 0.00 |
| 21 | 11/26 | 04:00 | 32 | 28 | 85 | 30.70 | W | 0 | 0.00 |
| 22 | 11/26 | 03:00 | 34 | 29 | 82 | 30.68 | SSE | 0 | 0.00 |
| 23 | 11/26 | 02:00 | 35 | 31 | 86 | 30.69 | ENE | 0 | 0.00 |
| 24 | 11/26 | 01:00 | 37 | 32 | 82 | 30.69 | SE | 0 | 0.00 |